Terminal Aerodrome Forecast
Issued by NWS North Platte, NE

Home | Current Version | Previous Version | Text Only | Print | Product List | Glossary On
Versions: 1 2 3 4 5 6 7 8 9 10 11 12 13 14 15 16 17
000
FTUS43 KLBF 290520
TAFLBF
TAF
KLBF 290520Z 2906/3006 04006KT P6SM OVC030
     FM291000 06006KT P6SM VCSH OVC012
     FM291200 05010KT 5SM -SHRA OVC007
     FM292000 05012KT 4SM -RA BR OVC007
     FM300200 02012KT 4SM -RA BR OVC005=

USA.gov is the U.S. government's official web portal to all federal, state and local government web resources and services.